createdAt,value
2018-08-23T00:02:18.817Z,20.72
2018-08-23T00:08:13.805Z,24.42
2018-08-23T00:14:08.790Z,19.55
2018-08-23T00:20:03.851Z,15.01
2018-08-23T00:25:58.793Z,19.12
2018-08-23T00:31:53.852Z,20.3
2018-08-23T00:37:48.830Z,18.53
2018-08-23T00:43:43.821Z,21.54
2018-08-23T00:49:38.817Z,19.87
2018-08-23T00:55:33.877Z,22.88
2018-08-23T01:01:28.869Z,20.71
2018-08-23T01:07:23.865Z,25.08
2018-08-23T01:13:18.826Z,17.99
2018-08-23T01:19:13.851Z,18.64
2018-08-23T01:25:08.835Z,23.01
2018-08-23T01:31:03.869Z,18.76
2018-08-23T01:36:58.872Z,20.02
2018-08-23T01:42:53.890Z,18.57
2018-08-23T01:48:48.915Z,20.06
2018-08-23T01:54:43.853Z,20.73
2018-08-23T02:00:38.850Z,23.35
2018-08-23T02:06:33.890Z,26.31
2018-08-23T02:12:28.887Z,24.85
2018-08-23T02:18:23.869Z,20.16
2018-08-23T02:24:18.880Z,25.24
2018-08-23T02:30:13.868Z,20.92
2018-08-23T02:36:08.906Z,20.72
2018-08-23T02:42:03.880Z,22.03
2018-08-23T02:47:58.906Z,19.49
2018-08-23T02:53:53.870Z,18.74
2018-08-23T02:59:48.912Z,21.95
2018-08-23T03:05:43.889Z,22.25
2018-08-23T03:11:38.943Z,20.69
2018-08-23T03:17:33.941Z,25.87
2018-08-23T03:23:28.981Z,23.82
2018-08-23T03:29:23.964Z,24.72
2018-08-23T03:35:18.910Z,25.66
2018-08-23T03:41:13.988Z,26.57
2018-08-23T03:47:08.954Z,26.69
2018-08-23T03:53:03.941Z,24.16
2018-08-23T03:58:58.930Z,21.23
2018-08-23T04:04:53.935Z,23.02
2018-08-23T04:10:48.959Z,19.14
2018-08-23T04:16:43.937Z,21.51
2018-08-23T04:22:38.991Z,18.73
2018-08-23T04:28:33.955Z,25.57
2018-08-23T04:34:28.954Z,25.75
2018-08-23T04:40:23.968Z,24
2018-08-23T04:46:18.971Z,19.45
2018-08-23T04:52:13.969Z,22.97
2018-08-23T04:58:09.005Z,22.07
2018-08-23T05:04:04.012Z,26.27
2018-08-23T05:09:59.037Z,20.6
2018-08-23T05:15:53.984Z,25.52
2018-08-23T05:21:48.982Z,24.64
2018-08-23T05:27:43.995Z,23.68
2018-08-23T05:33:38.993Z,29.34
2018-08-23T05:39:34.020Z,28.33
2018-08-23T05:45:29.002Z,22.45
2018-08-23T05:51:24.066Z,30.98
2018-08-23T05:57:19.074Z,30.65
2018-08-23T06:03:13.998Z,34.4
2018-08-23T06:09:09.038Z,25.73
2018-08-23T06:15:04.078Z,26.09
2018-08-23T06:20:59.022Z,26.32
2018-08-23T06:26:54.080Z,31.25
2018-08-23T06:32:49.071Z,24.19
2018-08-23T06:38:44.046Z,20.61
2018-08-23T06:44:39.023Z,22.92
2018-08-23T06:50:34.035Z,20.31
2018-08-23T06:56:29.045Z,20.21
2018-08-23T07:02:24.044Z,22.23
2018-08-23T07:08:19.087Z,18.77
2018-08-23T07:14:14.049Z,20.93
2018-08-23T07:20:09.094Z,20.23
2018-08-23T07:26:04.063Z,22.65
2018-08-23T07:31:59.061Z,20.29
2018-08-23T07:37:54.052Z,38.53
2018-08-23T07:43:49.074Z,22.91
2018-08-23T07:49:44.098Z,24.52
2018-08-23T07:55:39.077Z,17.67
2018-08-23T08:01:34.077Z,23.04
2018-08-23T08:07:29.099Z,23.83
2018-08-23T08:13:24.094Z,20.02
2018-08-23T08:19:19.104Z,20.21
2018-08-23T08:25:14.093Z,22.67
2018-08-23T08:31:09.082Z,16.8
2018-08-23T08:37:04.142Z,18.95
2018-08-23T08:42:59.098Z,17.01
2018-08-23T08:48:54.121Z,17.96
2018-08-23T08:54:49.118Z,18.5
2018-08-23T09:00:44.109Z,16.99
2018-08-23T09:06:39.116Z,15.37
2018-08-23T09:12:34.117Z,13.75
2018-08-23T09:18:29.138Z,17.89
2018-08-23T09:24:24.152Z,14.2
2018-08-23T09:30:19.156Z,15.19
2018-08-23T09:36:14.192Z,19.53
2018-08-23T09:42:09.137Z,11.15
2018-08-23T09:48:04.121Z,14.82
2018-08-23T09:53:59.183Z,16.81
2018-08-23T09:59:54.200Z,14.59
2018-08-23T10:05:49.184Z,13.6
2018-08-23T10:11:44.219Z,20.86
2018-08-23T10:17:39.184Z,15.54
2018-08-23T10:23:34.194Z,17.5
2018-08-23T10:29:29.174Z,13.3
2018-08-23T10:35:24.198Z,11.7
2018-08-23T10:41:19.220Z,16.3
2018-08-23T10:47:14.213Z,18.56
2018-08-23T10:53:09.229Z,15.23
2018-08-23T10:59:04.230Z,16.06
2018-08-23T11:04:59.216Z,11.84
2018-08-23T11:10:54.191Z,12.98
2018-08-23T11:16:49.288Z,10.56
2018-08-23T11:22:44.207Z,10.49
2018-08-23T11:28:39.226Z,9.83
2018-08-23T11:34:34.241Z,9.6
2018-08-23T11:40:29.220Z,8.89
2018-08-23T11:46:24.241Z,9.24
2018-08-23T11:52:19.234Z,7.76
2018-08-23T11:58:14.248Z,6.95
2018-08-23T12:04:09.239Z,9.73
2018-08-23T12:10:04.221Z,9.65
2018-08-23T12:15:59.290Z,8.54
2018-08-23T12:21:54.283Z,7.96
2018-08-23T12:27:49.291Z,5.79
2018-08-23T12:33:44.255Z,6.14
2018-08-23T12:39:39.251Z,5.66
2018-08-23T12:45:34.247Z,6.38
2018-08-23T12:51:29.297Z,5.17
2018-08-23T12:57:24.292Z,5.74
2018-08-23T13:03:19.293Z,5.43
2018-08-23T13:09:14.263Z,5.55
2018-08-23T13:15:09.274Z,4.81
2018-08-23T13:21:04.276Z,4.5
2018-08-23T13:26:59.262Z,5.33
2018-08-23T13:32:54.300Z,4.91
2018-08-23T13:38:49.323Z,4.91
2018-08-23T13:44:44.288Z,6.74
2018-08-23T13:50:39.330Z,7.91
2018-08-23T13:56:34.299Z,9.21
2018-08-23T14:02:29.291Z,9.19
2018-08-23T14:08:24.309Z,8.03
2018-08-23T14:14:19.327Z,6.65
2018-08-23T14:20:14.320Z,8.09
2018-08-23T14:26:09.318Z,7.76
2018-08-23T14:32:04.326Z,8.37
2018-08-23T14:37:59.332Z,9.69
2018-08-23T14:43:54.377Z,13.36
2018-08-23T14:49:49.384Z,8.25
2018-08-23T14:55:44.330Z,9.76
2018-08-23T15:01:39.336Z,10.43
2018-08-23T15:07:34.420Z,9.14
2018-08-23T15:13:29.366Z,10.1
2018-08-23T15:19:24.355Z,10.42
2018-08-23T15:25:19.347Z,13.28
2018-08-23T15:31:14.379Z,14.5
2018-08-23T15:37:09.404Z,9.49
2018-08-23T15:43:04.406Z,14.1
2018-08-23T15:48:59.396Z,8.7
2018-08-23T15:54:54.482Z,7.83
2018-08-23T16:00:49.368Z,9.8
2018-08-23T16:06:44.444Z,9.19
2018-08-23T16:12:39.381Z,11.9
2018-08-23T16:18:34.380Z,10.52
2018-08-23T16:24:29.405Z,10.62
2018-08-23T16:30:24.401Z,14.02
2018-08-23T16:36:19.390Z,13.08
2018-08-23T16:42:14.430Z,10.03
2018-08-23T16:48:09.408Z,11.26
2018-08-23T16:54:04.403Z,10.43
2018-08-23T16:59:59.422Z,11.12
2018-08-23T17:05:54.410Z,10.43
2018-08-23T17:11:49.472Z,13.11
2018-08-23T17:17:44.440Z,16.62
2018-08-23T17:23:39.433Z,16.38
2018-08-23T17:29:34.537Z,24.54
2018-08-23T17:35:29.435Z,27.54
2018-08-23T17:41:24.453Z,26.42
2018-08-23T17:47:19.477Z,22.27
2018-08-23T17:53:14.463Z,15.3
2018-08-23T17:59:09.455Z,13.44
2018-08-23T18:05:04.464Z,16.02
2018-08-23T18:10:59.479Z,13.5
2018-08-23T18:16:54.465Z,16.57
2018-08-23T18:22:49.464Z,14.07
2018-08-23T18:28:44.486Z,14.44
2018-08-23T18:34:39.480Z,20.91
2018-08-23T18:40:34.474Z,15.84
2018-08-23T18:46:29.485Z,15.35
2018-08-23T18:52:24.498Z,14.78
2018-08-23T18:58:19.514Z,17.45
2018-08-23T19:04:14.489Z,16.15
2018-08-23T19:10:09.569Z,16.3
2018-08-23T19:16:04.524Z,16.8
2018-08-23T19:21:59.519Z,19.47
2018-08-23T19:27:54.502Z,15.85
2018-08-23T19:33:49.509Z,18.56
2018-08-23T19:39:44.523Z,20.57
2018-08-23T19:45:39.549Z,20.17
2018-08-23T19:51:34.606Z,15.07
2018-08-23T19:57:29.535Z,17.43
2018-08-23T20:03:24.522Z,17
2018-08-23T20:09:19.523Z,15.54
2018-08-23T20:15:14.544Z,22.45
2018-08-23T20:21:09.561Z,20.53
2018-08-23T20:27:04.556Z,18.81
2018-08-23T20:32:59.542Z,18.27
2018-08-23T20:38:54.644Z,21.67
2018-08-23T20:44:49.580Z,21.03
2018-08-23T20:50:44.565Z,18.32
2018-08-23T20:56:39.567Z,18.93
2018-08-23T21:02:34.610Z,23.99
2018-08-23T21:08:29.581Z,18.23
2018-08-23T21:14:24.578Z,21.93
2018-08-23T21:20:19.602Z,18.62
2018-08-23T21:26:14.634Z,15.14
2018-08-23T21:32:09.638Z,20.9
2018-08-23T21:38:04.587Z,37.97
2018-08-23T21:43:59.613Z,25.91
2018-08-23T21:49:54.598Z,17.67
2018-08-23T21:55:49.588Z,18.12
2018-08-23T22:01:44.598Z,18.48
2018-08-23T22:07:39.682Z,19.31
2018-08-23T22:13:34.639Z,19.01
2018-08-23T22:19:29.609Z,20.24
2018-08-23T22:25:24.621Z,18.03
2018-08-23T22:31:19.639Z,20.52
2018-08-23T22:37:14.634Z,19.1
2018-08-23T22:43:09.642Z,18.29
2018-08-23T22:49:04.621Z,19.87
2018-08-23T22:54:59.624Z,23.92
2018-08-23T23:00:54.730Z,20.66
2018-08-23T23:06:49.627Z,24.45
2018-08-23T23:12:44.665Z,22.9
2018-08-23T23:18:39.668Z,18.45
2018-08-23T23:24:34.664Z,20.76
2018-08-23T23:30:29.691Z,18.98
2018-08-23T23:36:24.673Z,20.34
2018-08-23T23:42:19.668Z,17.51
2018-08-23T23:48:14.696Z,18.87
2018-08-23T23:54:09.713Z,21.14
